PWSweather.com
Personal Weather Stations
Station Observations
WODONGA
Wodonga, WodongaAU 3690

WodongaWodongaAU 3690

Lat: -36.121, Lon: 146.87

Elevation: 541

Station Type: Weather Station

http://www.wodongaweather.net

High Low Average
Temperature 67.3°F19.6°F 48.2°F9.0°F 55.7°F13.2°F
Dew Point 53.9°F12.2°F 43.2°F6.2°F 47.6°F8.7°F
Winds 11.8 mph WNW19.0 mph WNW 0.2 mph 0.3 mph 5.4 mph 8.7 mph
Wind Gusts 17.4 mph28.0 mph 0.7 mph1.1 mph 7.7 mph12.4 mph
Humidity 88% 60% 75%
Pressure 29.89 in1012.20 in 29.71 in1006.10 in -
Precipitation 0.12 in3.00 in - -
Hour Temp Dew Point Humidity Winds Wind Gusts Pressure Precip Precip Rate Daily Precip Total
12:00 AM 57.4°F14.1°C 46.5°F8.1°C 67% 7.6 mph SE12.2 kmh SE 9.8 mph15.8 kmh 29.78 in1008.5 mb 0.00 in0.0 mm 0.00 in/hr0.0 mm/hr 0.00 in0.0 mm
12:05 AM 57.4°F14.1°C 46.5°F8.1°C 67% 7.2 mph SE11.6 kmh SE 9.8 mph15.8 kmh 29.78 in1008.5 mb 0.00 in0.0 mm 0.00 in/hr0.0 mm/hr 0.00 in0.0 mm
12:10 AM 57.4°F14.1°C 46.5°F8.1°C 67% 7.4 mph SE11.9 kmh SE 9.8 mph15.8 kmh 29.77 in1008.1 mb 0.00 in0.0 mm 0.00 in/hr0.0 mm/hr 0.00 in0.0 mm
12:15 AM 57.4°F14.1°C 46.1°F7.8°C 66% 8.0 mph SE12.9 kmh SE 9.2 mph14.8 kmh 29.77 in1008.1 mb 0.00 in0.0 mm 0.00 in/hr0.0 mm/hr 0.00 in0.0 mm
12:20 AM 57.6°F14.2°C 46.3°F7.9°C 66% 8.5 mph SE13.7 kmh SE 9.8 mph15.8 kmh 29.77 in1008.1 mb 0.00 in0.0 mm 0.00 in/hr0.0 mm/hr 0.00 in0.0 mm
12:25 AM 57.4°F14.1°C 46.5°F8.1°C 67% 8.7 mph SE14.0 kmh SE 10.7 mph17.2 kmh 29.77 in1008.1 mb 0.00 in0.0 mm 0.00 in/hr0.0 mm/hr 0.00 in0.0 mm
12:30 AM 57.4°F14.1°C 46.1°F7.8°C 66% 8.6 mph SE13.8 kmh SE 10.7 mph17.2 kmh 29.77 in1008.1 mb 0.00 in0.0 mm 0.00 in/hr0.0 mm/hr 0.00 in0.0 mm
12:35 AM 57.4°F14.1°C 46.1°F7.8°C 66% 8.4 mph SE13.5 kmh SE 9.8 mph15.8 kmh 29.77 in1008.1 mb 0.00 in0.0 mm 0.00 in/hr0.0 mm/hr 0.00 in0.0 mm
12:40 AM 57.4°F14.1°C 46.1°F7.8°C 66% 8.0 mph SE12.9 kmh SE 9.8 mph15.8 kmh 29.77 in1008.1 mb 0.00 in0.0 mm 0.00 in/hr0.0 mm/hr 0.00 in0.0 mm
12:45 AM 57.2°F14.0°C 46.4°F8.0°C 67% 7.6 mph SE12.2 kmh SE 9.8 mph15.8 kmh 29.77 in1008.1 mb 0.00 in0.0 mm 0.00 in/hr0.0 mm/hr 0.00 in0.0 mm
12:50 AM 57.2°F14.0°C 46.4°F8.0°C 67% 7.1 mph SE11.4 kmh SE 9.2 mph14.8 kmh 29.77 in1008.1 mb 0.00 in0.0 mm 0.00 in/hr0.0 mm/hr 0.00 in0.0 mm
12:55 AM 57.2°F14.0°C 46.4°F8.0°C 67% 7.0 mph SE11.3 kmh SE 9.2 mph14.8 kmh 29.76 in1007.8 mb 0.00 in0.0 mm 0.00 in/hr0.0 mm/hr 0.00 in0.0 mm
01:00 AM 57.2°F14.0°C 46.4°F8.0°C 67% 7.5 mph SE12.1 kmh SE 9.2 mph14.8 kmh 29.76 in1007.8 mb 0.00 in0.0 mm 0.00 in/hr0.0 mm/hr 0.00 in0.0 mm
01:05 AM 57.2°F14.0°C 46.4°F8.0°C 67% 7.9 mph SE12.7 kmh SE 9.2 mph14.8 kmh 29.76 in1007.8 mb 0.00 in0.0 mm 0.00 in/hr0.0 mm/hr 0.00 in0.0 mm
01:10 AM 57.2°F14.0°C 46.4°F8.0°C 67% 6.9 mph SE11.1 kmh SE 9.2 mph14.8 kmh 29.76 in1007.8 mb 0.00 in0.0 mm 0.00 in/hr0.0 mm/hr 0.00 in0.0 mm
01:15 AM 57.0°F13.9°C 46.2°F7.9°C 67% 7.0 mph SE11.3 kmh SE 9.2 mph14.8 kmh 29.76 in1007.8 mb 0.00 in0.0 mm 0.00 in/hr0.0 mm/hr 0.00 in0.0 mm
01:20 AM 56.8°F13.8°C 46.0°F7.8°C 67% 7.6 mph SE12.2 kmh SE 9.2 mph14.8 kmh 29.76 in1007.8 mb 0.00 in0.0 mm 0.00 in/hr0.0 mm/hr 0.00 in0.0 mm
01:25 AM 56.7°F13.7°C 45.8°F7.7°C 67% 8.1 mph SE13.0 kmh SE 12.1 mph19.5 kmh 29.75 in1007.5 mb 0.00 in0.0 mm 0.00 in/hr0.0 mm/hr 0.00 in0.0 mm
01:30 AM 56.5°F13.6°C 46.1°F7.8°C 68% 8.3 mph SE13.4 kmh SE 12.1 mph19.5 kmh 29.75 in1007.5 mb 0.00 in0.0 mm 0.00 in/hr0.0 mm/hr 0.00 in0.0 mm
01:35 AM 56.5°F13.6°C 46.1°F7.8°C 68% 6.8 mph SE10.9 kmh SE 9.2 mph14.8 kmh 29.75 in1007.5 mb 0.00 in0.0 mm 0.00 in/hr0.0 mm/hr 0.00 in0.0 mm
01:40 AM 56.3°F13.5°C 45.9°F7.7°C 68% 6.6 mph SE10.6 kmh SE 7.6 mph12.2 kmh 29.74 in1007.1 mb 0.00 in0.0 mm 0.00 in/hr0.0 mm/hr 0.00 in0.0 mm
01:45 AM 56.3°F13.5°C 45.9°F7.7°C 68% 6.9 mph SE11.1 kmh SE 7.6 mph12.2 kmh 29.74 in1007.1 mb 0.00 in0.0 mm 0.00 in/hr0.0 mm/hr 0.00 in0.0 mm
01:50 AM 56.3°F13.5°C 46.3°F7.9°C 69% 8.0 mph SE12.9 kmh SE 11.4 mph18.3 kmh 29.73 in1006.8 mb 0.00 in0.0 mm 0.00 in/hr0.0 mm/hr 0.00 in0.0 mm
01:55 AM 56.3°F13.5°C 46.3°F7.9°C 69% 8.6 mph SE13.8 kmh SE 11.4 mph18.3 kmh 29.73 in1006.8 mb 0.00 in0.0 mm 0.00 in/hr0.0 mm/hr 0.00 in0.0 mm
02:00 AM 56.3°F13.5°C 45.9°F7.7°C 68% 8.0 mph SE12.9 kmh SE 9.8 mph15.8 kmh 29.73 in1006.8 mb 0.00 in0.0 mm 0.00 in/hr0.0 mm/hr 0.00 in0.0 mm
02:05 AM 56.3°F13.5°C 45.9°F7.7°C 68% 8.5 mph SE13.7 kmh SE 11.4 mph18.3 kmh 29.73 in1006.8 mb 0.00 in0.0 mm 0.00 in/hr0.0 mm/hr 0.00 in0.0 mm
02:10 AM 56.3°F13.5°C 45.9°F7.7°C 68% 8.9 mph SE14.3 kmh SE 11.4 mph18.3 kmh 29.73 in1006.8 mb 0.00 in0.0 mm 0.00 in/hr0.0 mm/hr 0.00 in0.0 mm
02:15 AM 56.3°F13.5°C 45.9°F7.7°C 68% 9.0 mph SE14.5 kmh SE 10.7 mph17.2 kmh 29.73 in1006.8 mb 0.00 in0.0 mm 0.00 in/hr0.0 mm/hr 0.00 in0.0 mm
02:20 AM 56.3°F13.5°C 45.9°F7.7°C 68% 8.1 mph SE13.0 kmh SE 10.7 mph17.2 kmh 29.73 in1006.8 mb 0.00 in0.0 mm 0.00 in/hr0.0 mm/hr 0.00 in0.0 mm
02:25 AM 56.3°F13.5°C 45.9°F7.7°C 68% 7.9 mph SE12.7 kmh SE 10.7 mph17.2 kmh 29.73 in1006.8 mb 0.00 in0.0 mm 0.00 in/hr0.0 mm/hr 0.00 in0.0 mm
02:30 AM 56.3°F13.5°C 45.9°F7.7°C 68% 7.5 mph SE12.1 kmh SE 10.7 mph17.2 kmh 29.73 in1006.8 mb 0.00 in0.0 mm 0.00 in/hr0.0 mm/hr 0.00 in0.0 mm
02:35 AM 56.3°F13.5°C 45.9°F7.7°C 68% 7.0 mph SE11.3 kmh SE 11.4 mph18.3 kmh 29.72 in1006.4 mb 0.00 in0.0 mm 0.00 in/hr0.0 mm/hr 0.00 in0.0 mm
02:40 AM 56.1°F13.4°C 45.7°F7.6°C 68% 7.7 mph SE12.4 kmh SE 11.4 mph18.3 kmh 29.72 in1006.4 mb 0.00 in0.0 mm 0.00 in/hr0.0 mm/hr 0.00 in0.0 mm
02:45 AM 55.9°F13.3°C 45.5°F7.5°C 68% 7.6 mph SE12.2 kmh SE 11.4 mph18.3 kmh 29.72 in1006.4 mb 0.00 in0.0 mm 0.00 in/hr0.0 mm/hr 0.00 in0.0 mm
02:50 AM 55.9°F13.3°C 45.5°F7.5°C 68% 7.1 mph SE11.4 kmh SE 9.2 mph14.8 kmh 29.71 in1006.1 mb 0.00 in0.0 mm 0.00 in/hr0.0 mm/hr 0.00 in0.0 mm
02:55 AM 55.8°F13.2°C 45.8°F7.7°C 69% 5.5 mph SSE8.9 kmh SSE 9.2 mph14.8 kmh 29.71 in1006.1 mb 0.00 in0.0 mm 0.00 in/hr0.0 mm/hr 0.00 in0.0 mm
03:00 AM 55.6°F13.1°C 45.6°F7.6°C 69% 4.3 mph SSE6.9 kmh SSE 6.0 mph9.7 kmh 29.71 in1006.1 mb 0.00 in0.0 mm 0.00 in/hr0.0 mm/hr 0.00 in0.0 mm
03:05 AM 55.4°F13.0°C 45.4°F7.4°C 69% 3.4 mph SE5.5 kmh SE 5.4 mph8.7 kmh 29.71 in1006.1 mb 0.00 in0.0 mm 0.00 in/hr0.0 mm/hr 0.00 in0.0 mm
03:10 AM 55.2°F12.9°C 45.6°F7.6°C 70% 3.1 mph SE5.0 kmh SE 6.0 mph9.7 kmh 29.71 in1006.1 mb 0.00 in0.0 mm 0.00 in/hr0.0 mm/hr 0.00 in0.0 mm
03:15 AM 55.0°F12.8°C 45.4°F7.4°C 70% 4.2 mph ESE6.8 kmh ESE 6.9 mph11.1 kmh 29.71 in1006.1 mb 0.00 in0.0 mm 0.00 in/hr0.0 mm/hr 0.00 in0.0 mm
03:20 AM 55.0°F12.8°C 45.4°F7.4°C 70% 4.7 mph E7.6 kmh E 7.6 mph12.2 kmh 29.71 in1006.1 mb 0.00 in0.0 mm 0.00 in/hr0.0 mm/hr 0.00 in0.0 mm
03:25 AM 55.0°F12.8°C 45.1°F7.3°C 69% 3.5 mph ESE5.6 kmh ESE 7.6 mph12.2 kmh 29.71 in1006.1 mb 0.00 in0.0 mm 0.00 in/hr0.0 mm/hr 0.00 in0.0 mm
03:30 AM 54.9°F12.7°C 45.3°F7.4°C 70% 2.0 mph SE3.2 kmh SE 3.8 mph6.1 kmh 29.71 in1006.1 mb 0.00 in0.0 mm 0.00 in/hr0.0 mm/hr 0.00 in0.0 mm
03:35 AM 54.7°F12.6°C 45.1°F7.3°C 70% 1.3 mph SE2.1 kmh SE 3.1 mph5.0 kmh 29.71 in1006.1 mb 0.00 in0.0 mm 0.00 in/hr0.0 mm/hr 0.00 in0.0 mm
03:40 AM 54.3°F12.4°C 44.8°F7.1°C 70% 1.8 mph E2.9 kmh E 3.8 mph6.1 kmh 29.71 in1006.1 mb 0.00 in0.0 mm 0.00 in/hr0.0 mm/hr 0.00 in0.0 mm
03:45 AM 54.3°F12.4°C 45.1°F7.3°C 71% 3.7 mph ENE6.0 kmh ENE 6.0 mph9.7 kmh 29.71 in1006.1 mb 0.00 in0.0 mm 0.00 in/hr0.0 mm/hr 0.00 in0.0 mm
03:50 AM 54.5°F12.5°C 45.3°F7.4°C 71% 3.7 mph E6.0 kmh E 6.0 mph9.7 kmh 29.71 in1006.1 mb 0.00 in0.0 mm 0.00 in/hr0.0 mm/hr 0.00 in0.0 mm
03:55 AM 54.3°F12.4°C 45.1°F7.3°C 71% 2.4 mph ESE3.9 kmh ESE 4.5 mph7.2 kmh 29.71 in1006.1 mb 0.00 in0.0 mm 0.00 in/hr0.0 mm/hr 0.00 in0.0 mm
04:00 AM 54.1°F12.3°C 45.0°F7.2°C 71% 1.7 mph SSE2.7 kmh SSE 3.1 mph5.0 kmh 29.71 in1006.1 mb 0.00 in0.0 mm 0.00 in/hr0.0 mm/hr 0.00 in0.0 mm
04:05 AM 53.8°F12.1°C 44.6°F7.0°C 71% 1.6 mph S2.6 kmh S 3.1 mph5.0 kmh 29.71 in1006.1 mb 0.00 in0.0 mm 0.00 in/hr0.0 mm/hr 0.00 in0.0 mm
04:10 AM 53.8°F12.1°C 45.0°F7.2°C 72% 1.7 mph S2.7 kmh S 2.2 mph3.5 kmh 29.71 in1006.1 mb 0.00 in0.0 mm 0.00 in/hr0.0 mm/hr 0.00 in0.0 mm
04:15 AM 53.6°F12.0°C 44.8°F7.1°C 72% 3.0 mph SSE4.8 kmh SSE 7.6 mph12.2 kmh 29.71 in1006.1 mb 0.00 in0.0 mm 0.00 in/hr0.0 mm/hr 0.00 in0.0 mm
04:20 AM 53.6°F12.0°C 44.8°F7.1°C 72% 3.3 mph SSE5.3 kmh SSE 7.6 mph12.2 kmh 29.71 in1006.1 mb 0.00 in0.0 mm 0.00 in/hr0.0 mm/hr 0.00 in0.0 mm
04:25 AM 53.4°F11.9°C 44.6°F7.0°C 72% 1.7 mph S2.7 kmh S 5.4 mph8.7 kmh 29.72 in1006.4 mb 0.00 in0.0 mm 0.00 in/hr0.0 mm/hr 0.00 in0.0 mm
04:30 AM 53.2°F11.8°C 44.5°F6.9°C 72% 1.3 mph SW2.1 kmh SW 2.2 mph3.5 kmh 29.71 in1006.1 mb 0.00 in0.0 mm 0.00 in/hr0.0 mm/hr 0.00 in0.0 mm
04:35 AM 53.1°F11.7°C 44.6°F7.0°C 73% 1.3 mph NW2.1 kmh NW 2.2 mph3.5 kmh 29.71 in1006.1 mb 0.00 in0.0 mm 0.00 in/hr0.0 mm/hr 0.00 in0.0 mm
04:40 AM 52.7°F11.5°C 44.3°F6.8°C 73% 1.2 mph NW1.9 kmh NW 2.2 mph3.5 kmh 29.72 in1006.4 mb 0.00 in0.0 mm 0.00 in/hr0.0 mm/hr 0.00 in0.0 mm
04:45 AM 52.3°F11.3°C 44.3°F6.8°C 74% 0.8 mph NW1.3 kmh NW 3.1 mph5.0 kmh 29.73 in1006.8 mb 0.00 in0.0 mm 0.00 in/hr0.0 mm/hr 0.00 in0.0 mm
04:50 AM 52.0°F11.1°C 44.0°F6.7°C 74% 1.2 mph NW1.9 kmh NW 3.1 mph5.0 kmh 29.73 in1006.8 mb 0.00 in0.0 mm 0.00 in/hr0.0 mm/hr 0.00 in0.0 mm
04:55 AM 51.8°F11.0°C 44.1°F6.7°C 75% 1.8 mph WNW2.9 kmh WNW 3.1 mph5.0 kmh 29.73 in1006.8 mb 0.00 in0.0 mm 0.00 in/hr0.0 mm/hr 0.00 in0.0 mm
05:00 AM 51.8°F11.0°C 44.1°F6.7°C 75% 1.3 mph W2.1 kmh W 2.2 mph3.5 kmh 29.73 in1006.8 mb 0.00 in0.0 mm 0.00 in/hr0.0 mm/hr 0.00 in0.0 mm
05:05 AM 51.4°F10.8°C 44.1°F6.7°C 76% 0.4 mph WNW0.6 kmh WNW 1.6 mph2.6 kmh 29.73 in1006.8 mb 0.00 in0.0 mm 0.00 in/hr0.0 mm/hr 0.00 in0.0 mm
05:10 AM 51.3°F10.7°C 44.0°F6.7°C 76% 0.3 mph NW0.5 kmh NW 1.6 mph2.6 kmh 29.73 in1006.8 mb 0.00 in0.0 mm 0.00 in/hr0.0 mm/hr 0.00 in0.0 mm
05:15 AM 51.1°F10.6°C 43.8°F6.6°C 76% 0.2 mph NNW0.3 kmh NNW 0.7 mph1.1 kmh 29.73 in1006.8 mb 0.00 in0.0 mm 0.00 in/hr0.0 mm/hr 0.00 in0.0 mm
05:20 AM 50.7°F10.4°C 43.8°F6.6°C 77% 0.7 mph W1.1 kmh W 2.2 mph3.5 kmh 29.73 in1006.8 mb 0.00 in0.0 mm 0.00 in/hr0.0 mm/hr 0.00 in0.0 mm
05:25 AM 50.5°F10.3°C 43.6°F6.4°C 77% 1.1 mph WSW1.8 kmh WSW 2.2 mph3.5 kmh 29.74 in1007.1 mb 0.00 in0.0 mm 0.00 in/hr0.0 mm/hr 0.00 in0.0 mm
05:30 AM 50.4°F10.2°C 43.4°F6.3°C 77% 1.3 mph S2.1 kmh S 2.2 mph3.5 kmh 29.73 in1006.8 mb 0.00 in0.0 mm 0.00 in/hr0.0 mm/hr 0.00 in0.0 mm
05:35 AM 50.2°F10.1°C 43.6°F6.4°C 78% 2.0 mph SSE3.2 kmh SSE 2.2 mph3.5 kmh 29.74 in1007.1 mb 0.00 in0.0 mm 0.00 in/hr0.0 mm/hr 0.00 in0.0 mm
05:40 AM 50.0°F10.0°C 43.4°F6.3°C 78% 2.3 mph SSE3.7 kmh SSE 3.8 mph6.1 kmh 29.73 in1006.8 mb 0.00 in0.0 mm 0.00 in/hr0.0 mm/hr 0.00 in0.0 mm
05:45 AM 49.5°F9.7°C 43.2°F6.2°C 79% 2.5 mph SSE4.0 kmh SSE 3.8 mph6.1 kmh 29.73 in1006.8 mb 0.00 in0.0 mm 0.00 in/hr0.0 mm/hr 0.00 in0.0 mm
05:50 AM 49.5°F9.7°C 43.2°F6.2°C 79% 2.2 mph SE3.5 kmh SE 3.8 mph6.1 kmh 29.73 in1006.8 mb 0.00 in0.0 mm 0.00 in/hr0.0 mm/hr 0.00 in0.0 mm
05:55 AM 49.3°F9.6°C 43.4°F6.3°C 80% 2.1 mph S3.4 kmh S 3.8 mph6.1 kmh 29.73 in1006.8 mb 0.00 in0.0 mm 0.00 in/hr0.0 mm/hr 0.00 in0.0 mm
06:00 AM 49.3°F9.6°C 43.4°F6.3°C 80% 2.4 mph S3.9 kmh S 3.1 mph5.0 kmh 29.73 in1006.8 mb 0.00 in0.0 mm 0.00 in/hr0.0 mm/hr 0.00 in0.0 mm
06:05 AM 49.1°F9.5°C 43.2°F6.2°C 80% 2.1 mph SSW3.4 kmh SSW 3.8 mph6.1 kmh 29.74 in1007.1 mb 0.00 in0.0 mm 0.00 in/hr0.0 mm/hr 0.00 in0.0 mm
06:10 AM 49.1°F9.5°C 43.5°F6.4°C 81% 2.2 mph SSW3.5 kmh SSW 3.8 mph6.1 kmh 29.74 in1007.1 mb 0.00 in0.0 mm 0.00 in/hr0.0 mm/hr 0.00 in0.0 mm
06:15 AM 49.3°F9.6°C 43.7°F6.5°C 81% 2.6 mph SSE4.2 kmh SSE 3.8 mph6.1 kmh 29.74 in1007.1 mb 0.00 in0.0 mm 0.00 in/hr0.0 mm/hr 0.00 in0.0 mm
06:20 AM 49.1°F9.5°C 43.5°F6.4°C 81% 3.2 mph SE5.1 kmh SE 4.5 mph7.2 kmh 29.74 in1007.1 mb 0.00 in0.0 mm 0.00 in/hr0.0 mm/hr 0.00 in0.0 mm
06:25 AM 49.5°F9.7°C 43.9°F6.6°C 81% 3.9 mph SE6.3 kmh SE 5.4 mph8.7 kmh 29.75 in1007.5 mb 0.00 in0.0 mm 0.00 in/hr0.0 mm/hr 0.00 in0.0 mm
06:30 AM 49.8°F9.9°C 43.9°F6.6°C 80% 3.1 mph SE5.0 kmh SE 5.4 mph8.7 kmh 29.75 in1007.5 mb 0.00 in0.0 mm 0.00 in/hr0.0 mm/hr 0.00 in0.0 mm
06:35 AM 49.8°F9.9°C 43.9°F6.6°C 80% 1.8 mph S2.9 kmh S 3.1 mph5.0 kmh 29.75 in1007.5 mb 0.00 in0.0 mm 0.00 in/hr0.0 mm/hr 0.00 in0.0 mm
06:40 AM 49.8°F9.9°C 43.9°F6.6°C 80% 1.4 mph S2.3 kmh S 3.1 mph5.0 kmh 29.75 in1007.5 mb 0.00 in0.0 mm 0.00 in/hr0.0 mm/hr 0.00 in0.0 mm
06:45 AM 50.0°F10.0°C 44.1°F6.7°C 80% 2.5 mph ESE4.0 kmh ESE 3.8 mph6.1 kmh 29.75 in1007.5 mb 0.00 in0.0 mm 0.00 in/hr0.0 mm/hr 0.00 in0.0 mm
06:50 AM 50.2°F10.1°C 44.3°F6.8°C 80% 3.2 mph E5.1 kmh E 3.8 mph6.1 kmh 29.75 in1007.5 mb 0.00 in0.0 mm 0.00 in/hr0.0 mm/hr 0.00 in0.0 mm
06:55 AM 50.5°F10.3°C 44.6°F7.0°C 80% 2.1 mph ENE3.4 kmh ENE 3.8 mph6.1 kmh 29.75 in1007.5 mb 0.00 in0.0 mm 0.00 in/hr0.0 mm/hr 0.00 in0.0 mm
07:00 AM 50.7°F10.4°C 44.5°F6.9°C 79% 1.4 mph N2.3 kmh N 2.2 mph3.5 kmh 29.76 in1007.8 mb 0.00 in0.0 mm 0.00 in/hr0.0 mm/hr 0.00 in0.0 mm
07:05 AM 51.4°F10.8°C 44.8°F7.1°C 78% 2.1 mph NNE3.4 kmh NNE 4.5 mph7.2 kmh 29.76 in1007.8 mb 0.00 in0.0 mm 0.00 in/hr0.0 mm/hr 0.00 in0.0 mm
07:10 AM 51.8°F11.0°C 45.2°F7.3°C 78% 2.7 mph NE4.3 kmh NE 4.5 mph7.2 kmh 29.76 in1007.8 mb 0.00 in0.0 mm 0.00 in/hr0.0 mm/hr 0.00 in0.0 mm
07:15 AM 52.3°F11.3°C 45.4°F7.4°C 77% 3.3 mph NE5.3 kmh NE 6.0 mph9.7 kmh 29.77 in1008.1 mb 0.00 in0.0 mm 0.00 in/hr0.0 mm/hr 0.00 in0.0 mm
07:20 AM 52.7°F11.5°C 45.4°F7.4°C 76% 4.2 mph NE6.8 kmh NE 7.6 mph12.2 kmh 29.76 in1007.8 mb 0.00 in0.0 mm 0.00 in/hr0.0 mm/hr 0.00 in0.0 mm
07:25 AM 52.9°F11.6°C 45.2°F7.3°C 75% 5.2 mph NNE8.4 kmh NNE 9.8 mph15.8 kmh 29.77 in1008.1 mb 0.00 in0.0 mm 0.00 in/hr0.0 mm/hr 0.00 in0.0 mm
07:30 AM 53.2°F11.8°C 45.2°F7.3°C 74% 5.9 mph N9.5 kmh N 9.8 mph15.8 kmh 29.78 in1008.5 mb 0.00 in0.0 mm 0.00 in/hr0.0 mm/hr 0.00 in0.0 mm
07:35 AM 53.1°F11.7°C 45.0°F7.2°C 74% 6.3 mph N10.1 kmh N 7.6 mph12.2 kmh 29.78 in1008.5 mb 0.00 in0.0 mm 0.00 in/hr0.0 mm/hr 0.00 in0.0 mm
07:40 AM 53.2°F11.8°C 45.2°F7.3°C 74% 6.5 mph N10.5 kmh N 7.6 mph12.2 kmh 29.78 in1008.5 mb 0.00 in0.0 mm 0.00 in/hr0.0 mm/hr 0.00 in0.0 mm
07:45 AM 53.2°F11.8°C 45.2°F7.3°C 74% 6.9 mph N11.1 kmh N 9.2 mph14.8 kmh 29.78 in1008.5 mb 0.00 in0.0 mm 0.00 in/hr0.0 mm/hr 0.00 in0.0 mm
07:50 AM 53.2°F11.8°C 44.5°F6.9°C 72% 7.1 mph NNW11.4 kmh NNW 9.2 mph14.8 kmh 29.79 in1008.8 mb 0.00 in0.0 mm 0.00 in/hr0.0 mm/hr 0.00 in0.0 mm
07:55 AM 52.9°F11.6°C 44.1°F6.7°C 72% 7.0 mph NW11.3 kmh NW 10.7 mph17.2 kmh 29.79 in1008.8 mb 0.00 in0.0 mm 0.00 in/hr0.0 mm/hr 0.00 in0.0 mm
08:00 AM 53.2°F11.8°C 44.8°F7.1°C 73% 7.5 mph NNW12.1 kmh NNW 10.7 mph17.2 kmh 29.79 in1008.8 mb 0.00 in0.0 mm 0.00 in/hr0.0 mm/hr 0.00 in0.0 mm
08:05 AM 53.8°F12.1°C 45.0°F7.2°C 72% 6.9 mph N11.1 kmh N 9.2 mph14.8 kmh 29.79 in1008.8 mb 0.00 in0.0 mm 0.00 in/hr0.0 mm/hr 0.00 in0.0 mm
08:10 AM 54.1°F12.3°C 45.3°F7.4°C 72% 6.5 mph NNW10.5 kmh NNW 9.2 mph14.8 kmh 29.80 in1009.1 mb 0.00 in0.0 mm 0.00 in/hr0.0 mm/hr 0.00 in0.0 mm
08:15 AM 54.1°F12.3°C 45.3°F7.4°C 72% 7.4 mph NW11.9 kmh NW 10.7 mph17.2 kmh 29.80 in1009.1 mb 0.00 in0.0 mm 0.00 in/hr0.0 mm/hr 0.00 in0.0 mm
08:20 AM 54.7°F12.6°C 45.5°F7.5°C 71% 7.0 mph NW11.3 kmh NW 10.7 mph17.2 kmh 29.80 in1009.1 mb 0.00 in0.0 mm 0.00 in/hr0.0 mm/hr 0.00 in0.0 mm
08:25 AM 55.0°F12.8°C 45.8°F7.7°C 71% 7.5 mph NW12.1 kmh NW 12.1 mph19.5 kmh 29.80 in1009.1 mb 0.00 in0.0 mm 0.00 in/hr0.0 mm/hr 0.00 in0.0 mm
08:30 AM 55.0°F12.8°C 45.4°F7.4°C 70% 8.5 mph NW13.7 kmh NW 12.1 mph19.5 kmh 29.81 in1009.5 mb 0.00 in0.0 mm 0.00 in/hr0.0 mm/hr 0.00 in0.0 mm
08:35 AM 55.2°F12.9°C 45.6°F7.6°C 70% 8.0 mph WNW12.9 kmh WNW 10.7 mph17.2 kmh 29.80 in1009.1 mb 0.00 in0.0 mm 0.00 in/hr0.0 mm/hr 0.00 in0.0 mm
08:40 AM 55.4°F13.0°C 45.8°F7.7°C 70% 9.1 mph NW14.6 kmh NW 12.1 mph19.5 kmh 29.81 in1009.5 mb 0.00 in0.0 mm 0.00 in/hr0.0 mm/hr 0.00 in0.0 mm
08:45 AM 54.9°F12.7°C 45.6°F7.6°C 71% 9.8 mph NW15.8 kmh NW 12.1 mph19.5 kmh 29.81 in1009.5 mb 0.00 in0.0 mm 0.00 in/hr0.0 mm/hr 0.00 in0.0 mm
08:50 AM 55.2°F12.9°C 46.0°F7.8°C 71% 8.6 mph NW13.8 kmh NW 12.1 mph19.5 kmh 29.81 in1009.5 mb 0.00 in0.0 mm 0.00 in/hr0.0 mm/hr 0.00 in0.0 mm
08:55 AM 55.2°F12.9°C 46.0°F7.8°C 71% 8.3 mph WNW13.4 kmh WNW 10.7 mph17.2 kmh 29.81 in1009.5 mb 0.00 in0.0 mm 0.00 in/hr0.0 mm/hr 0.00 in0.0 mm
09:00 AM 55.0°F12.8°C 46.2°F7.9°C 72% 8.3 mph WNW13.4 kmh WNW 10.7 mph17.2 kmh 29.82 in1009.8 mb 0.00 in0.0 mm 0.00 in/hr0.0 mm/hr 0.00 in0.0 mm
09:05 AM 54.9°F12.7°C 46.0°F7.8°C 72% 7.4 mph NW11.9 kmh NW 9.8 mph15.8 kmh 29.82 in1009.8 mb 0.00 in0.0 mm 0.00 in/hr0.0 mm/hr 0.00 in0.0 mm
09:10 AM 55.6°F13.1°C 46.7°F8.2°C 72% 6.2 mph NW10.0 kmh NW 7.6 mph12.2 kmh 29.82 in1009.8 mb 0.00 in0.0 mm 0.00 in/hr0.0 mm/hr 0.00 in0.0 mm
09:15 AM 56.3°F13.5°C 47.4°F8.6°C 72% 5.4 mph WNW8.7 kmh WNW 6.9 mph11.1 kmh 29.81 in1009.5 mb 0.00 in0.0 mm 0.00 in/hr0.0 mm/hr 0.00 in0.0 mm
09:20 AM 56.3°F13.5°C 47.0°F8.3°C 71% 4.8 mph NW7.7 kmh NW 6.9 mph11.1 kmh 29.82 in1009.8 mb 0.00 in0.0 mm 0.00 in/hr0.0 mm/hr 0.00 in0.0 mm
09:25 AM 55.9°F13.3°C 46.7°F8.2°C 71% 5.2 mph NW8.4 kmh NW 8.3 mph13.4 kmh 29.82 in1009.8 mb 0.00 in0.0 mm 0.00 in/hr0.0 mm/hr 0.00 in0.0 mm
09:30 AM 55.4°F13.0°C 46.5°F8.1°C 72% 5.6 mph NW9.0 kmh NW 8.3 mph13.4 kmh 29.82 in1009.8 mb 0.00 in0.0 mm 0.00 in/hr0.0 mm/hr 0.00 in0.0 mm
09:35 AM 54.9°F12.7°C 46.4°F8.0°C 73% 5.6 mph NW9.0 kmh NW 7.6 mph12.2 kmh 29.82 in1009.8 mb 0.00 in0.0 mm 0.00 in/hr0.0 mm/hr 0.00 in0.0 mm
09:40 AM 54.5°F12.5°C 46.4°F8.0°C 74% 5.2 mph NW8.4 kmh NW 6.9 mph11.1 kmh 29.82 in1009.8 mb 0.00 in0.0 mm 0.00 in/hr0.0 mm/hr 0.00 in0.0 mm
09:45 AM 54.3°F12.4°C 46.2°F7.9°C 74% 5.3 mph NW8.5 kmh NW 8.3 mph13.4 kmh 29.82 in1009.8 mb 0.00 in0.0 mm 0.00 in/hr0.0 mm/hr 0.00 in0.0 mm
09:50 AM 54.0°F12.2°C 46.2°F7.9°C 75% 6.0 mph NNW9.7 kmh NNW 8.3 mph13.4 kmh 29.82 in1009.8 mb 0.00 in0.0 mm 0.00 in/hr0.0 mm/hr 0.00 in0.0 mm
09:55 AM 53.8°F12.1°C 46.4°F8.0°C 76% 5.7 mph NNW9.2 kmh NNW 8.3 mph13.4 kmh 29.83 in1010.2 mb 0.00 in0.0 mm 0.00 in/hr0.0 mm/hr 0.00 in0.0 mm
10:00 AM 54.0°F12.2°C 46.6°F8.1°C 76% 5.2 mph NNW8.4 kmh NNW 7.6 mph12.2 kmh 29.82 in1009.8 mb 0.00 in0.0 mm 0.00 in/hr0.0 mm/hr 0.00 in0.0 mm
10:05 AM 53.8°F12.1°C 46.1°F7.8°C 75% 5.4 mph NW8.7 kmh NW 7.6 mph12.2 kmh 29.82 in1009.8 mb 0.00 in0.0 mm 0.00 in/hr0.0 mm/hr 0.00 in0.0 mm
10:10 AM 53.6°F12.0°C 46.2°F7.9°C 76% 5.7 mph WNW9.2 kmh WNW 7.6 mph12.2 kmh 29.82 in1009.8 mb 0.00 in0.0 mm 0.00 in/hr0.0 mm/hr 0.00 in0.0 mm
10:15 AM 53.6°F12.0°C 46.2°F7.9°C 76% 5.5 mph W8.9 kmh W 7.6 mph12.2 kmh 29.82 in1009.8 mb 0.00 in0.0 mm 0.00 in/hr0.0 mm/hr 0.00 in0.0 mm
10:20 AM 53.4°F11.9°C 46.1°F7.8°C 76% 5.3 mph WNW8.5 kmh WNW 6.0 mph9.7 kmh 29.82 in1009.8 mb 0.00 in0.0 mm 0.00 in/hr0.0 mm/hr 0.00 in0.0 mm
10:25 AM 53.4°F11.9°C 46.1°F7.8°C 76% 5.4 mph NW8.7 kmh NW 6.0 mph9.7 kmh 29.82 in1009.8 mb 0.00 in0.0 mm 0.00 in/hr0.0 mm/hr 0.00 in0.0 mm
10:30 AM 53.6°F12.0°C 46.2°F7.9°C 76% 5.1 mph WNW8.2 kmh WNW 6.0 mph9.7 kmh 29.82 in1009.8 mb 0.00 in0.0 mm 0.00 in/hr0.0 mm/hr 0.00 in0.0 mm
10:35 AM 54.0°F12.2°C 46.6°F8.1°C 76% 4.7 mph WNW7.6 kmh WNW 6.0 mph9.7 kmh 29.82 in1009.8 mb 0.00 in0.0 mm 0.00 in/hr0.0 mm/hr 0.00 in0.0 mm
10:40 AM 54.1°F12.3°C 46.8°F8.2°C 76% 4.4 mph NW7.1 kmh NW 6.0 mph9.7 kmh 29.82 in1009.8 mb 0.00 in0.0 mm 0.00 in/hr0.0 mm/hr 0.00 in0.0 mm
10:45 AM 54.7°F12.6°C 47.3°F8.5°C 76% 4.0 mph NW6.4 kmh NW 6.0 mph9.7 kmh 29.81 in1009.5 mb 0.00 in0.0 mm 0.00 in/hr0.0 mm/hr 0.00 in0.0 mm
10:50 AM 55.0°F12.8°C 47.3°F8.5°C 75% 3.8 mph NW6.1 kmh NW 5.4 mph8.7 kmh 29.81 in1009.5 mb 0.00 in0.0 mm 0.00 in/hr0.0 mm/hr 0.00 in0.0 mm
10:55 AM 55.4°F13.0°C 47.6°F8.7°C 75% 4.0 mph NW6.4 kmh NW 5.4 mph8.7 kmh 29.81 in1009.5 mb 0.00 in0.0 mm 0.00 in/hr0.0 mm/hr 0.00 in0.0 mm
11:00 AM 56.1°F13.4°C 48.0°F8.9°C 74% 3.6 mph WNW5.8 kmh WNW 5.4 mph8.7 kmh 29.81 in1009.5 mb 0.00 in0.0 mm 0.00 in/hr0.0 mm/hr 0.00 in0.0 mm
11:05 AM 56.8°F13.8°C 48.3°F9.1°C 73% 3.2 mph NW5.1 kmh NW 5.4 mph8.7 kmh 29.81 in1009.5 mb 0.00 in0.0 mm 0.00 in/hr0.0 mm/hr 0.00 in0.0 mm
11:10 AM 57.2°F14.0°C 48.3°F9.1°C 72% 2.9 mph NW4.7 kmh NW 5.4 mph8.7 kmh 29.81 in1009.5 mb 0.00 in0.0 mm 0.00 in/hr0.0 mm/hr 0.00 in0.0 mm
11:15 AM 57.6°F14.2°C 48.6°F9.2°C 72% 2.8 mph N4.5 kmh N 4.5 mph7.2 kmh 29.81 in1009.5 mb 0.00 in0.0 mm 0.00 in/hr0.0 mm/hr 0.00 in0.0 mm
11:20 AM 57.6°F14.2°C 48.6°F9.2°C 72% 2.9 mph NE4.7 kmh NE 4.5 mph7.2 kmh 29.81 in1009.5 mb 0.00 in0.0 mm 0.00 in/hr0.0 mm/hr 0.00 in0.0 mm
11:25 AM 57.4°F14.1°C 48.4°F9.1°C 72% 3.1 mph N5.0 kmh N 5.4 mph8.7 kmh 29.81 in1009.5 mb 0.00 in0.0 mm 0.00 in/hr0.0 mm/hr 0.00 in0.0 mm
11:30 AM 57.6°F14.2°C 48.6°F9.2°C 72% 3.3 mph NNE5.3 kmh NNE 5.4 mph8.7 kmh 29.81 in1009.5 mb 0.00 in0.0 mm 0.00 in/hr0.0 mm/hr 0.00 in0.0 mm
11:35 AM 57.7°F14.3°C 49.2°F9.6°C 73% 3.0 mph ENE4.8 kmh ENE 4.5 mph7.2 kmh 29.81 in1009.5 mb 0.00 in0.0 mm 0.00 in/hr0.0 mm/hr 0.00 in0.0 mm
11:40 AM 57.6°F14.2°C 48.6°F9.2°C 72% 3.0 mph N4.8 kmh N 4.5 mph7.2 kmh 29.80 in1009.1 mb 0.00 in0.0 mm 0.00 in/hr0.0 mm/hr 0.00 in0.0 mm
11:45 AM 57.6°F14.2°C 48.6°F9.2°C 72% 3.2 mph NNE5.1 kmh NNE 4.5 mph7.2 kmh 29.80 in1009.1 mb 0.00 in0.0 mm 0.00 in/hr0.0 mm/hr 0.00 in0.0 mm
11:50 AM 57.6°F14.2°C 48.6°F9.2°C 72% 3.2 mph NE5.1 kmh NE 4.5 mph7.2 kmh 29.80 in1009.1 mb 0.00 in0.0 mm 0.00 in/hr0.0 mm/hr 0.00 in0.0 mm
11:55 AM 57.7°F14.3°C 48.8°F9.3°C 72% 3.3 mph NNW5.3 kmh NNW 4.5 mph7.2 kmh 29.80 in1009.1 mb 0.00 in0.0 mm 0.00 in/hr0.0 mm/hr 0.00 in0.0 mm
12:00 PM 57.9°F14.4°C 49.0°F9.4°C 72% 3.8 mph NW6.1 kmh NW 5.4 mph8.7 kmh 29.81 in1009.5 mb 0.00 in0.0 mm 0.00 in/hr0.0 mm/hr 0.00 in0.0 mm
12:05 PM 58.3°F14.6°C 49.3°F9.6°C 72% 4.0 mph N6.4 kmh N 6.0 mph9.7 kmh 29.80 in1009.1 mb 0.00 in0.0 mm 0.00 in/hr0.0 mm/hr 0.00 in0.0 mm
12:10 PM 58.8°F14.9°C 49.8°F9.9°C 72% 3.4 mph NNW5.5 kmh NNW 6.0 mph9.7 kmh 29.80 in1009.1 mb 0.00 in0.0 mm 0.00 in/hr0.0 mm/hr 0.00 in0.0 mm
12:15 PM 59.7°F15.4°C 50.3°F10.2°C 71% 2.9 mph NNW4.7 kmh NNW 4.5 mph7.2 kmh 29.80 in1009.1 mb 0.00 in0.0 mm 0.00 in/hr0.0 mm/hr 0.00 in0.0 mm
12:20 PM 60.6°F15.9°C 50.8°F10.4°C 70% 3.6 mph N5.8 kmh N 6.9 mph11.1 kmh 29.80 in1009.1 mb 0.00 in0.0 mm 0.00 in/hr0.0 mm/hr 0.00 in0.0 mm
12:25 PM 61.2°F16.2°C 50.5°F10.3°C 68% 3.5 mph NNW5.6 kmh NNW 6.9 mph11.1 kmh 29.80 in1009.1 mb 0.00 in0.0 mm 0.00 in/hr0.0 mm/hr 0.00 in0.0 mm
12:30 PM 61.9°F16.6°C 51.2°F10.7°C 68% 2.7 mph NW4.3 kmh NW 4.5 mph7.2 kmh 29.80 in1009.1 mb 0.00 in0.0 mm 0.00 in/hr0.0 mm/hr 0.00 in0.0 mm
12:35 PM 62.2°F16.8°C 51.6°F10.9°C 68% 3.4 mph N5.5 kmh N 5.4 mph8.7 kmh 29.80 in1009.1 mb 0.00 in0.0 mm 0.00 in/hr0.0 mm/hr 0.00 in0.0 mm
12:40 PM 63.0°F17.2°C 51.4°F10.8°C 66% 4.3 mph NNW6.9 kmh NNW 6.0 mph9.7 kmh 29.79 in1008.8 mb 0.00 in0.0 mm 0.00 in/hr0.0 mm/hr 0.00 in0.0 mm
12:45 PM 63.7°F17.6°C 52.1°F11.2°C 66% 3.8 mph WNW6.1 kmh WNW 6.0 mph9.7 kmh 29.78 in1008.5 mb 0.00 in0.0 mm 0.00 in/hr0.0 mm/hr 0.00 in0.0 mm
12:50 PM 65.1°F18.4°C 52.7°F11.5°C 64% 3.4 mph WSW5.5 kmh WSW 6.9 mph11.1 kmh 29.79 in1008.8 mb 0.00 in0.0 mm 0.00 in/hr0.0 mm/hr 0.00 in0.0 mm
12:55 PM 65.7°F18.7°C 52.7°F11.5°C 63% 4.4 mph NW7.1 kmh NW 6.9 mph11.1 kmh 29.79 in1008.8 mb 0.00 in0.0 mm 0.00 in/hr0.0 mm/hr 0.00 in0.0 mm
01:00 PM 65.8°F18.8°C 52.9°F11.6°C 63% 4.2 mph NW6.8 kmh NW 6.9 mph11.1 kmh 29.79 in1008.8 mb 0.00 in0.0 mm 0.00 in/hr0.0 mm/hr 0.00 in0.0 mm
01:05 PM 65.8°F18.8°C 52.5°F11.4°C 62% 3.6 mph WNW5.8 kmh WNW 7.6 mph12.2 kmh 29.78 in1008.5 mb 0.00 in0.0 mm 0.00 in/hr0.0 mm/hr 0.00 in0.0 mm
01:10 PM 65.7°F18.7°C 52.7°F11.5°C 63% 4.5 mph NNW7.2 kmh NNW 7.6 mph12.2 kmh 29.78 in1008.5 mb 0.00 in0.0 mm 0.00 in/hr0.0 mm/hr 0.00 in0.0 mm
01:15 PM 66.0°F18.9°C 53.1°F11.7°C 63% 4.7 mph NNW7.6 kmh NNW 7.6 mph12.2 kmh 29.78 in1008.5 mb 0.00 in0.0 mm 0.00 in/hr0.0 mm/hr 0.00 in0.0 mm
01:20 PM 66.6°F19.2°C 53.2°F11.8°C 62% 5.0 mph WNW8.0 kmh WNW 7.6 mph12.2 kmh 29.78 in1008.5 mb 0.00 in0.0 mm 0.00 in/hr0.0 mm/hr 0.00 in0.0 mm
01:25 PM 67.3°F19.6°C 53.4°F11.9°C 61% 6.0 mph W9.7 kmh W 8.3 mph13.4 kmh 29.78 in1008.5 mb 0.00 in0.0 mm 0.00 in/hr0.0 mm/hr 0.00 in0.0 mm
01:30 PM 66.4°F19.1°C 52.1°F11.2°C 60% 7.3 mph NW11.7 kmh NW 11.4 mph18.3 kmh 29.77 in1008.1 mb 0.00 in0.0 mm 0.00 in/hr0.0 mm/hr 0.00 in0.0 mm
01:35 PM 66.4°F19.1°C 53.9°F12.2°C 64% 7.8 mph NNW12.6 kmh NNW 11.4 mph18.3 kmh 29.77 in1008.1 mb 0.00 in0.0 mm 0.00 in/hr0.0 mm/hr 0.00 in0.0 mm
01:40 PM 66.0°F18.9°C 52.6°F11.4°C 62% 7.8 mph NNW12.6 kmh NNW 10.7 mph17.2 kmh 29.77 in1008.1 mb 0.00 in0.0 mm 0.00 in/hr0.0 mm/hr 0.00 in0.0 mm
01:45 PM 64.6°F18.1°C 51.7°F10.9°C 63% 8.4 mph NW13.5 kmh NW 10.7 mph17.2 kmh 29.78 in1008.5 mb 0.00 in0.0 mm 0.00 in/hr0.0 mm/hr 0.00 in0.0 mm
01:50 PM 63.9°F17.7°C 51.9°F11.1°C 65% 8.7 mph NW14.0 kmh NW 10.7 mph17.2 kmh 29.77 in1008.1 mb 0.00 in0.0 mm 0.00 in/hr0.0 mm/hr 0.00 in0.0 mm
01:55 PM 63.5°F17.5°C 52.0°F11.1°C 66% 7.6 mph NW12.2 kmh NW 10.7 mph17.2 kmh 29.77 in1008.1 mb 0.00 in0.0 mm 0.00 in/hr0.0 mm/hr 0.00 in0.0 mm
02:00 PM 63.0°F17.2°C 51.8°F11.0°C 67% 7.3 mph NW11.7 kmh NW 10.7 mph17.2 kmh 29.78 in1008.5 mb 0.00 in0.0 mm 0.00 in/hr0.0 mm/hr 0.00 in0.0 mm
02:05 PM 62.4°F16.9°C 51.3°F10.7°C 67% 7.6 mph NW12.2 kmh NW 10.7 mph17.2 kmh 29.78 in1008.5 mb 0.00 in0.0 mm 0.00 in/hr0.0 mm/hr 0.00 in0.0 mm
02:10 PM 61.5°F16.4°C 51.3°F10.7°C 69% 7.4 mph NW11.9 kmh NW 9.2 mph14.8 kmh 29.78 in1008.5 mb 0.00 in0.0 mm 0.00 in/hr0.0 mm/hr 0.00 in0.0 mm
02:15 PM 61.0°F16.1°C 51.1°F10.6°C 70% 7.1 mph NNW11.4 kmh NNW 9.2 mph14.8 kmh 29.78 in1008.5 mb 0.00 in0.0 mm 0.00 in/hr0.0 mm/hr 0.00 in0.0 mm
02:20 PM 60.8°F16.0°C 51.4°F10.8°C 71% 6.1 mph NNW9.8 kmh NNW 8.3 mph13.4 kmh 29.78 in1008.5 mb 0.00 in0.0 mm 0.00 in/hr0.0 mm/hr 0.00 in0.0 mm
02:25 PM 61.3°F16.3°C 51.9°F11.1°C 71% 6.1 mph NW9.8 kmh NW 8.3 mph13.4 kmh 29.77 in1008.1 mb 0.00 in0.0 mm 0.00 in/hr0.0 mm/hr 0.00 in0.0 mm
02:30 PM 61.9°F16.6°C 52.0°F11.1°C 70% 6.5 mph NW10.5 kmh NW 9.2 mph14.8 kmh 29.78 in1008.5 mb 0.00 in0.0 mm 0.00 in/hr0.0 mm/hr 0.00 in0.0 mm
02:35 PM 62.1°F16.7°C 51.8°F11.0°C 69% 7.4 mph NW11.9 kmh NW 11.4 mph18.3 kmh 29.77 in1008.1 mb 0.00 in0.0 mm 0.00 in/hr0.0 mm/hr 0.00 in0.0 mm
02:40 PM 62.1°F16.7°C 51.4°F10.8°C 68% 8.5 mph NW13.7 kmh NW 11.4 mph18.3 kmh 29.77 in1008.1 mb 0.00 in0.0 mm 0.00 in/hr0.0 mm/hr 0.00 in0.0 mm
02:45 PM 61.9°F16.6°C 50.8°F10.4°C 67% 10.2 mph NW16.4 kmh NW 17.4 mph28.0 kmh 29.77 in1008.1 mb 0.00 in0.0 mm 0.00 in/hr0.0 mm/hr 0.00 in0.0 mm
02:50 PM 61.7°F16.5°C 51.0°F10.6°C 68% 11.1 mph NW17.9 kmh NW 17.4 mph28.0 kmh 29.77 in1008.1 mb 0.00 in0.0 mm 0.00 in/hr0.0 mm/hr 0.00 in0.0 mm
02:55 PM 62.1°F16.7°C 51.0°F10.6°C 67% 10.6 mph NW17.1 kmh NW 14.5 mph23.3 kmh 29.77 in1008.1 mb 0.00 in0.0 mm 0.00 in/hr0.0 mm/hr 0.00 in0.0 mm
03:00 PM 62.4°F16.9°C 50.9°F10.5°C 66% 11.8 mph WNW19.0 kmh WNW 15.2 mph24.5 kmh 29.77 in1008.1 mb 0.00 in0.0 mm 0.00 in/hr0.0 mm/hr 0.00 in0.0 mm
03:05 PM 62.8°F17.1°C 50.9°F10.5°C 65% 11.4 mph WNW18.3 kmh WNW 15.2 mph24.5 kmh 29.78 in1008.5 mb 0.00 in0.0 mm 0.00 in/hr0.0 mm/hr 0.00 in0.0 mm
03:10 PM 63.5°F17.5°C 51.5°F10.8°C 65% 10.2 mph W16.4 kmh W 15.2 mph24.5 kmh 29.77 in1008.1 mb 0.00 in0.0 mm 0.00 in/hr0.0 mm/hr 0.00 in0.0 mm
03:15 PM 64.0°F17.8°C 51.2°F10.7°C 63% 10.2 mph W16.4 kmh W 14.5 mph23.3 kmh 29.77 in1008.1 mb 0.00 in0.0 mm 0.00 in/hr0.0 mm/hr 0.00 in0.0 mm
03:20 PM 63.9°F17.7°C 51.0°F10.6°C 63% 9.9 mph NW15.9 kmh NW 14.5 mph23.3 kmh 29.78 in1008.5 mb 0.00 in0.0 mm 0.00 in/hr0.0 mm/hr 0.00 in0.0 mm
03:25 PM 64.0°F17.8°C 51.2°F10.7°C 63% 10.0 mph NW16.1 kmh NW 13.6 mph21.9 kmh 29.78 in1008.5 mb 0.00 in0.0 mm 0.00 in/hr0.0 mm/hr 0.00 in0.0 mm
03:30 PM 63.9°F17.7°C 50.6°F10.3°C 62% 10.7 mph NW17.2 kmh NW 15.2 mph24.5 kmh 29.78 in1008.5 mb 0.00 in0.0 mm 0.00 in/hr0.0 mm/hr 0.00 in0.0 mm
03:35 PM 63.7°F17.6°C 50.9°F10.5°C 63% 10.7 mph NW17.2 kmh NW 15.2 mph24.5 kmh 29.78 in1008.5 mb 0.00 in0.0 mm 0.00 in/hr0.0 mm/hr 0.00 in0.0 mm
03:40 PM 64.2°F17.9°C 51.4°F10.8°C 63% 10.3 mph NW16.6 kmh NW 12.1 mph19.5 kmh 29.77 in1008.1 mb 0.00 in0.0 mm 0.00 in/hr0.0 mm/hr 0.00 in0.0 mm
03:45 PM 64.6°F18.1°C 51.7°F10.9°C 63% 9.4 mph WNW15.1 kmh WNW 12.1 mph19.5 kmh 29.78 in1008.5 mb 0.00 in0.0 mm 0.00 in/hr0.0 mm/hr 0.00 in0.0 mm
03:50 PM 64.0°F17.8°C 50.8°F10.4°C 62% 9.2 mph WNW14.8 kmh WNW 12.1 mph19.5 kmh 29.78 in1008.5 mb 0.00 in0.0 mm 0.00 in/hr0.0 mm/hr 0.00 in0.0 mm
03:55 PM 63.3°F17.4°C 51.0°F10.6°C 64% 9.8 mph WNW15.8 kmh WNW 12.1 mph19.5 kmh 29.78 in1008.5 mb 0.00 in0.0 mm 0.00 in/hr0.0 mm/hr 0.00 in0.0 mm
04:00 PM 62.1°F16.7°C 50.2°F10.1°C 65% 10.8 mph WNW17.4 kmh WNW 13.6 mph21.9 kmh 29.78 in1008.5 mb 0.00 in0.0 mm 0.00 in/hr0.0 mm/hr 0.00 in0.0 mm
04:05 PM 61.3°F16.3°C 50.3°F10.2°C 67% 10.6 mph WNW17.1 kmh WNW 13.6 mph21.9 kmh 29.78 in1008.5 mb 0.00 in0.0 mm 0.00 in/hr0.0 mm/hr 0.00 in0.0 mm
04:10 PM 61.0°F16.1°C 50.4°F10.2°C 68% 9.4 mph WNW15.1 kmh WNW 11.4 mph18.3 kmh 29.78 in1008.5 mb 0.00 in0.0 mm 0.00 in/hr0.0 mm/hr 0.00 in0.0 mm
04:15 PM 60.8°F16.0°C 50.6°F10.3°C 69% 9.0 mph WNW14.5 kmh WNW 11.4 mph18.3 kmh 29.78 in1008.5 mb 0.00 in0.0 mm 0.00 in/hr0.0 mm/hr 0.00 in0.0 mm
04:20 PM 60.8°F16.0°C 50.6°F10.3°C 69% 8.0 mph NW12.9 kmh NW 11.4 mph18.3 kmh 29.79 in1008.8 mb 0.00 in0.0 mm 0.00 in/hr0.0 mm/hr 0.00 in0.0 mm
04:25 PM 60.3°F15.7°C 50.5°F10.3°C 70% 9.0 mph NW14.5 kmh NW 12.1 mph19.5 kmh 29.79 in1008.8 mb 0.00 in0.0 mm 0.00 in/hr0.0 mm/hr 0.00 in0.0 mm
04:30 PM 60.1°F15.6°C 50.7°F10.4°C 71% 9.5 mph NW15.3 kmh NW 12.1 mph19.5 kmh 29.79 in1008.8 mb 0.00 in0.0 mm 0.00 in/hr0.0 mm/hr 0.00 in0.0 mm
04:35 PM 59.9°F15.5°C 50.9°F10.5°C 72% 8.4 mph NW13.5 kmh NW 10.7 mph17.2 kmh 29.79 in1008.8 mb 0.00 in0.0 mm 0.00 in/hr0.0 mm/hr 0.00 in0.0 mm
04:40 PM 59.7°F15.4°C 50.7°F10.4°C 72% 9.5 mph WNW15.3 kmh WNW 13.0 mph20.9 kmh 29.79 in1008.8 mb 0.00 in0.0 mm 0.00 in/hr0.0 mm/hr 0.00 in0.0 mm
04:45 PM 59.4°F15.2°C 51.1°F10.6°C 74% 10.2 mph WNW16.4 kmh WNW 13.0 mph20.9 kmh 29.79 in1008.8 mb 0.00 in0.0 mm 0.00 in/hr0.0 mm/hr 0.00 in0.0 mm
04:50 PM 58.8°F14.9°C 50.9°F10.5°C 75% 8.2 mph WNW13.2 kmh WNW 12.1 mph19.5 kmh 29.79 in1008.8 mb 0.00 in0.0 mm 0.00 in/hr0.0 mm/hr 0.00 in0.0 mm
04:55 PM 58.6°F14.8°C 51.5°F10.8°C 77% 6.2 mph WNW10.0 kmh WNW 8.3 mph13.4 kmh 29.79 in1008.8 mb 0.00 in0.0 mm 0.00 in/hr0.0 mm/hr 0.00 in0.0 mm
05:00 PM 58.3°F14.6°C 51.8°F11.0°C 79% 6.2 mph WNW10.0 kmh WNW 8.3 mph13.4 kmh 29.80 in1009.1 mb 0.00 in0.0 mm 0.00 in/hr0.0 mm/hr 0.00 in0.0 mm
05:05 PM 58.3°F14.6°C 51.8°F11.0°C 79% 5.8 mph WNW9.3 kmh WNW 7.6 mph12.2 kmh 29.80 in1009.1 mb 0.00 in0.0 mm 0.00 in/hr0.0 mm/hr 0.00 in0.0 mm
05:10 PM 58.3°F14.6°C 51.8°F11.0°C 79% 5.8 mph NW9.3 kmh NW 7.6 mph12.2 kmh 29.80 in1009.1 mb 0.00 in0.0 mm 0.00 in/hr0.0 mm/hr 0.00 in0.0 mm
05:15 PM 58.3°F14.6°C 51.5°F10.8°C 78% 7.5 mph WNW12.1 kmh WNW 10.7 mph17.2 kmh 29.80 in1009.1 mb 0.00 in0.0 mm 0.00 in/hr0.0 mm/hr 0.00 in0.0 mm
05:20 PM 58.1°F14.5°C 50.9°F10.5°C 77% 9.3 mph W15.0 kmh W 11.4 mph18.3 kmh 29.80 in1009.1 mb 0.00 in0.0 mm 0.00 in/hr0.0 mm/hr 0.00 in0.0 mm
05:25 PM 58.1°F14.5°C 50.9°F10.5°C 77% 9.8 mph W15.8 kmh W 12.1 mph19.5 kmh 29.80 in1009.1 mb 0.00 in0.0 mm 0.00 in/hr0.0 mm/hr 0.00 in0.0 mm
05:30 PM 58.1°F14.5°C 50.6°F10.3°C 76% 8.2 mph W13.2 kmh W 12.1 mph19.5 kmh 29.81 in1009.5 mb 0.00 in0.0 mm 0.00 in/hr0.0 mm/hr 0.00 in0.0 mm
05:35 PM 58.1°F14.5°C 50.6°F10.3°C 76% 6.8 mph W10.9 kmh W 9.2 mph14.8 kmh 29.81 in1009.5 mb 0.00 in0.0 mm 0.00 in/hr0.0 mm/hr 0.00 in0.0 mm
05:40 PM 57.9°F14.4°C 50.8°F10.4°C 77% 7.2 mph WNW11.6 kmh WNW 9.2 mph14.8 kmh 29.81 in1009.5 mb 0.00 in0.0 mm 0.00 in/hr0.0 mm/hr 0.00 in0.0 mm
05:45 PM 57.7°F14.3°C 50.9°F10.5°C 78% 8.0 mph WNW12.9 kmh WNW 9.8 mph15.8 kmh 29.81 in1009.5 mb 0.00 in0.0 mm 0.00 in/hr0.0 mm/hr 0.00 in0.0 mm
05:50 PM 57.6°F14.2°C 50.8°F10.4°C 78% 7.4 mph WNW11.9 kmh WNW 9.8 mph15.8 kmh 29.80 in1009.1 mb 0.00 in0.0 mm 0.00 in/hr0.0 mm/hr 0.00 in0.0 mm
05:55 PM 57.4°F14.1°C 50.6°F10.3°C 78% 5.8 mph WNW9.3 kmh WNW 9.2 mph14.8 kmh 29.81 in1009.5 mb 0.00 in0.0 mm 0.00 in/hr0.0 mm/hr 0.00 in0.0 mm
06:00 PM 57.2°F14.0°C 50.4°F10.2°C 78% 5.8 mph WNW9.3 kmh WNW 8.3 mph13.4 kmh 29.81 in1009.5 mb 0.00 in0.0 mm 0.00 in/hr0.0 mm/hr 0.00 in0.0 mm
06:05 PM 56.8°F13.8°C 50.1°F10.1°C 78% 6.1 mph W9.8 kmh W 8.3 mph13.4 kmh 29.80 in1009.1 mb 0.00 in0.0 mm 0.00 in/hr0.0 mm/hr 0.00 in0.0 mm
06:10 PM 56.5°F13.6°C 49.7°F9.8°C 78% 5.0 mph W8.0 kmh W 7.6 mph12.2 kmh 29.81 in1009.5 mb 0.00 in0.0 mm 0.00 in/hr0.0 mm/hr 0.00 in0.0 mm
06:15 PM 56.5°F13.6°C 50.1°F10.1°C 79% 4.0 mph W6.4 kmh W 6.0 mph9.7 kmh 29.82 in1009.8 mb 0.00 in0.0 mm 0.00 in/hr0.0 mm/hr 0.00 in0.0 mm
06:20 PM 56.3°F13.5°C 49.9°F9.9°C 79% 3.7 mph W6.0 kmh W 4.5 mph7.2 kmh 29.82 in1009.8 mb 0.00 in0.0 mm 0.00 in/hr0.0 mm/hr 0.00 in0.0 mm
06:25 PM 56.3°F13.5°C 50.2°F10.1°C 80% 3.7 mph W6.0 kmh W 4.5 mph7.2 kmh 29.82 in1009.8 mb 0.00 in0.0 mm 0.00 in/hr0.0 mm/hr 0.00 in0.0 mm
06:30 PM 56.1°F13.4°C 50.4°F10.2°C 81% 3.4 mph W5.5 kmh W 4.5 mph7.2 kmh 29.82 in1009.8 mb 0.00 in0.0 mm 0.00 in/hr0.0 mm/hr 0.00 in0.0 mm
06:35 PM 55.9°F13.3°C 50.5°F10.3°C 82% 3.7 mph W6.0 kmh W 6.0 mph9.7 kmh 29.82 in1009.8 mb 0.00 in0.0 mm 0.00 in/hr0.0 mm/hr 0.00 in0.0 mm
06:40 PM 55.8°F13.2°C 50.7°F10.4°C 83% 3.9 mph WNW6.3 kmh WNW 6.0 mph9.7 kmh 29.83 in1010.2 mb 0.00 in0.0 mm 0.00 in/hr0.0 mm/hr 0.00 in0.0 mm
06:45 PM 55.8°F13.2°C 51.0°F10.6°C 84% 3.0 mph WNW4.8 kmh WNW 3.8 mph6.1 kmh 29.83 in1010.2 mb 0.01 in0.3 mm 0.12 in/hr3.0 mm/hr 0.01 in0.3 mm
06:50 PM 55.6°F13.1°C 51.2°F10.7°C 85% 2.3 mph W3.7 kmh W 3.1 mph5.0 kmh 29.83 in1010.2 mb 0.01 in0.3 mm 0.00 in/hr0.0 mm/hr 0.01 in0.3 mm
06:55 PM 55.4°F13.0°C 51.0°F10.6°C 85% 3.1 mph W5.0 kmh W 6.0 mph9.7 kmh 29.83 in1010.2 mb 0.01 in0.3 mm 0.00 in/hr0.0 mm/hr 0.01 in0.3 mm
07:00 PM 55.2°F12.9°C 51.1°F10.6°C 86% 4.4 mph WNW7.1 kmh WNW 6.0 mph9.7 kmh 29.83 in1010.2 mb 0.01 in0.3 mm 0.00 in/hr0.0 mm/hr 0.01 in0.3 mm
07:05 PM 55.0°F12.8°C 51.2°F10.7°C 87% 4.6 mph W7.4 kmh W 5.4 mph8.7 kmh 29.84 in1010.5 mb 0.01 in0.3 mm 0.00 in/hr0.0 mm/hr 0.01 in0.3 mm
07:10 PM 54.9°F12.7°C 51.1°F10.6°C 87% 4.3 mph W6.9 kmh W 5.4 mph8.7 kmh 29.83 in1010.2 mb 0.01 in0.3 mm 0.00 in/hr0.0 mm/hr 0.01 in0.3 mm
07:15 PM 54.7°F12.6°C 50.9°F10.5°C 87% 3.5 mph W5.6 kmh W 6.0 mph9.7 kmh 29.83 in1010.2 mb 0.01 in0.3 mm 0.00 in/hr0.0 mm/hr 0.01 in0.3 mm
07:20 PM 54.5°F12.5°C 50.7°F10.4°C 87% 2.8 mph W4.5 kmh W 6.0 mph9.7 kmh 29.84 in1010.5 mb 0.01 in0.3 mm 0.00 in/hr0.0 mm/hr 0.01 in0.3 mm
07:25 PM 54.3°F12.4°C 50.5°F10.3°C 87% 3.0 mph W4.8 kmh W 4.5 mph7.2 kmh 29.84 in1010.5 mb 0.01 in0.3 mm 0.00 in/hr0.0 mm/hr 0.01 in0.3 mm
07:30 PM 54.3°F12.4°C 50.5°F10.3°C 87% 3.0 mph W4.8 kmh W 4.5 mph7.2 kmh 29.84 in1010.5 mb 0.01 in0.3 mm 0.00 in/hr0.0 mm/hr 0.01 in0.3 mm
07:35 PM 54.1°F12.3°C 50.4°F10.2°C 87% 3.1 mph W5.0 kmh W 4.5 mph7.2 kmh 29.84 in1010.5 mb 0.01 in0.3 mm 0.00 in/hr0.0 mm/hr 0.01 in0.3 mm
07:40 PM 54.1°F12.3°C 50.4°F10.2°C 87% 3.3 mph W5.3 kmh W 4.5 mph7.2 kmh 29.85 in1010.8 mb 0.01 in0.3 mm 0.00 in/hr0.0 mm/hr 0.01 in0.3 mm
07:45 PM 54.0°F12.2°C 50.2°F10.1°C 87% 4.0 mph WNW6.4 kmh WNW 7.6 mph12.2 kmh 29.85 in1010.8 mb 0.00 in0.0 mm 0.00 in/hr0.0 mm/hr 0.01 in0.3 mm
07:50 PM 53.8°F12.1°C 50.3°F10.2°C 88% 4.6 mph WNW7.4 kmh WNW 7.6 mph12.2 kmh 29.85 in1010.8 mb 0.00 in0.0 mm 0.00 in/hr0.0 mm/hr 0.01 in0.3 mm
07:55 PM 53.8°F12.1°C 50.0°F10.0°C 87% 3.7 mph WSW6.0 kmh WSW 7.6 mph12.2 kmh 29.85 in1010.8 mb 0.00 in0.0 mm 0.00 in/hr0.0 mm/hr 0.01 in0.3 mm
08:00 PM 53.6°F12.0°C 49.8°F9.9°C 87% 3.9 mph SW6.3 kmh SW 7.6 mph12.2 kmh 29.85 in1010.8 mb 0.00 in0.0 mm 0.00 in/hr0.0 mm/hr 0.01 in0.3 mm
08:05 PM 53.4°F11.9°C 49.3°F9.6°C 86% 4.4 mph WSW7.1 kmh WSW 6.0 mph9.7 kmh 29.86 in1011.2 mb 0.00 in0.0 mm 0.00 in/hr0.0 mm/hr 0.01 in0.3 mm
08:10 PM 53.2°F11.8°C 49.2°F9.6°C 86% 4.8 mph WSW7.7 kmh WSW 8.3 mph13.4 kmh 29.85 in1010.8 mb 0.00 in0.0 mm 0.00 in/hr0.0 mm/hr 0.01 in0.3 mm
08:15 PM 52.9°F11.6°C 48.8°F9.3°C 86% 5.4 mph WSW8.7 kmh WSW 8.3 mph13.4 kmh 29.85 in1010.8 mb 0.00 in0.0 mm 0.00 in/hr0.0 mm/hr 0.01 in0.3 mm
08:20 PM 52.9°F11.6°C 48.8°F9.3°C 86% 4.9 mph WSW7.9 kmh WSW 7.6 mph12.2 kmh 29.86 in1011.2 mb 0.00 in0.0 mm 0.00 in/hr0.0 mm/hr 0.01 in0.3 mm
08:25 PM 52.7°F11.5°C 48.3°F9.1°C 85% 4.8 mph WSW7.7 kmh WSW 6.9 mph11.1 kmh 29.86 in1011.2 mb 0.00 in0.0 mm 0.00 in/hr0.0 mm/hr 0.01 in0.3 mm
08:30 PM 52.5°F11.4°C 48.1°F8.9°C 85% 5.3 mph W8.5 kmh W 7.6 mph12.2 kmh 29.86 in1011.2 mb 0.00 in0.0 mm 0.00 in/hr0.0 mm/hr 0.01 in0.3 mm
08:35 PM 52.3°F11.3°C 48.0°F8.9°C 85% 4.6 mph WSW7.4 kmh WSW 7.6 mph12.2 kmh 29.86 in1011.2 mb 0.00 in0.0 mm 0.00 in/hr0.0 mm/hr 0.01 in0.3 mm
08:40 PM 52.3°F11.3°C 48.0°F8.9°C 85% 3.9 mph SW6.3 kmh SW 6.9 mph11.1 kmh 29.86 in1011.2 mb 0.00 in0.0 mm 0.00 in/hr0.0 mm/hr 0.01 in0.3 mm
08:45 PM 52.0°F11.1°C 47.6°F8.7°C 85% 4.6 mph WSW7.4 kmh WSW 6.9 mph11.1 kmh 29.86 in1011.2 mb 0.00 in0.0 mm 0.00 in/hr0.0 mm/hr 0.01 in0.3 mm
08:50 PM 51.8°F11.0°C 47.4°F8.6°C 85% 5.2 mph W8.4 kmh W 6.9 mph11.1 kmh 29.86 in1011.2 mb 0.00 in0.0 mm 0.00 in/hr0.0 mm/hr 0.01 in0.3 mm
08:55 PM 51.8°F11.0°C 47.4°F8.6°C 85% 5.6 mph WNW9.0 kmh WNW 7.6 mph12.2 kmh 29.86 in1011.2 mb 0.00 in0.0 mm 0.00 in/hr0.0 mm/hr 0.01 in0.3 mm
09:00 PM 51.6°F10.9°C 47.3°F8.5°C 85% 6.1 mph W9.8 kmh W 7.6 mph12.2 kmh 29.87 in1011.5 mb 0.00 in0.0 mm 0.00 in/hr0.0 mm/hr 0.01 in0.3 mm
09:05 PM 51.4°F10.8°C 47.1°F8.4°C 85% 6.0 mph WSW9.7 kmh WSW 9.8 mph15.8 kmh 29.87 in1011.5 mb 0.00 in0.0 mm 0.00 in/hr0.0 mm/hr 0.01 in0.3 mm
09:10 PM 51.4°F10.8°C 46.8°F8.2°C 84% 5.9 mph W9.5 kmh W 9.8 mph15.8 kmh 29.87 in1011.5 mb 0.00 in0.0 mm 0.00 in/hr0.0 mm/hr 0.01 in0.3 mm
09:15 PM 51.3°F10.7°C 46.6°F8.1°C 84% 5.4 mph W8.7 kmh W 8.3 mph13.4 kmh 29.87 in1011.5 mb 0.00 in0.0 mm 0.00 in/hr0.0 mm/hr 0.01 in0.3 mm
09:20 PM 51.1°F10.6°C 46.4°F8.0°C 84% 5.0 mph NW8.0 kmh NW 6.9 mph11.1 kmh 29.87 in1011.5 mb 0.00 in0.0 mm 0.00 in/hr0.0 mm/hr 0.01 in0.3 mm
09:25 PM 51.1°F10.6°C 46.7°F8.2°C 85% 5.3 mph NW8.5 kmh NW 6.9 mph11.1 kmh 29.87 in1011.5 mb 0.00 in0.0 mm 0.00 in/hr0.0 mm/hr 0.01 in0.3 mm
09:30 PM 51.1°F10.6°C 46.4°F8.0°C 84% 5.6 mph WNW9.0 kmh WNW 7.6 mph12.2 kmh 29.88 in1011.9 mb 0.00 in0.0 mm 0.00 in/hr0.0 mm/hr 0.01 in0.3 mm
09:35 PM 51.1°F10.6°C 46.4°F8.0°C 84% 5.6 mph WNW9.0 kmh WNW 8.3 mph13.4 kmh 29.88 in1011.9 mb 0.00 in0.0 mm 0.00 in/hr0.0 mm/hr 0.01 in0.3 mm
09:40 PM 50.9°F10.5°C 46.2°F7.9°C 84% 5.5 mph NW8.9 kmh NW 8.3 mph13.4 kmh 29.88 in1011.9 mb 0.00 in0.0 mm 0.00 in/hr0.0 mm/hr 0.01 in0.3 mm
09:45 PM 51.1°F10.6°C 46.4°F8.0°C 84% 5.2 mph WNW8.4 kmh WNW 7.6 mph12.2 kmh 29.88 in1011.9 mb 0.00 in0.0 mm 0.00 in/hr0.0 mm/hr 0.01 in0.3 mm
09:50 PM 50.9°F10.5°C 45.9°F7.7°C 83% 4.0 mph WNW6.4 kmh WNW 6.9 mph11.1 kmh 29.89 in1012.2 mb 0.00 in0.0 mm 0.00 in/hr0.0 mm/hr 0.01 in0.3 mm
09:55 PM 50.9°F10.5°C 45.9°F7.7°C 83% 4.1 mph NW6.6 kmh NW 8.3 mph13.4 kmh 29.89 in1012.2 mb 0.00 in0.0 mm 0.00 in/hr0.0 mm/hr 0.01 in0.3 mm
10:00 PM 50.7°F10.4°C 45.8°F7.7°C 83% 4.4 mph N7.1 kmh N 8.3 mph13.4 kmh 29.89 in1012.2 mb 0.00 in0.0 mm 0.00 in/hr0.0 mm/hr 0.01 in0.3 mm
10:05 PM 50.5°F10.3°C 45.9°F7.7°C 84% 2.9 mph NNW4.7 kmh NNW 5.4 mph8.7 kmh 29.89 in1012.2 mb 0.00 in0.0 mm 0.00 in/hr0.0 mm/hr 0.01 in0.3 mm
10:10 PM 50.5°F10.3°C 45.9°F7.7°C 84% 1.6 mph N2.6 kmh N 2.2 mph3.5 kmh 29.89 in1012.2 mb 0.00 in0.0 mm 0.00 in/hr0.0 mm/hr 0.01 in0.3 mm
10:15 PM 50.4°F10.2°C 45.7°F7.6°C 84% 1.6 mph NE2.6 kmh NE 2.2 mph3.5 kmh 29.89 in1012.2 mb 0.00 in0.0 mm 0.00 in/hr0.0 mm/hr 0.01 in0.3 mm
10:20 PM 50.2°F10.1°C 45.5°F7.5°C 84% 1.8 mph ENE2.9 kmh ENE 3.8 mph6.1 kmh 29.89 in1012.2 mb 0.00 in0.0 mm 0.00 in/hr0.0 mm/hr 0.01 in0.3 mm
10:25 PM 50.0°F10.0°C 45.7°F7.6°C 85% 2.6 mph N4.2 kmh N 4.5 mph7.2 kmh 29.89 in1012.2 mb 0.00 in0.0 mm 0.00 in/hr0.0 mm/hr 0.01 in0.3 mm
10:30 PM 50.2°F10.1°C 45.5°F7.5°C 84% 3.4 mph N5.5 kmh N 5.4 mph8.7 kmh 29.89 in1012.2 mb 0.00 in0.0 mm 0.00 in/hr0.0 mm/hr 0.01 in0.3 mm
10:35 PM 50.2°F10.1°C 45.5°F7.5°C 84% 3.2 mph NW5.1 kmh NW 5.4 mph8.7 kmh 29.89 in1012.2 mb 0.00 in0.0 mm 0.00 in/hr0.0 mm/hr 0.01 in0.3 mm
10:40 PM 50.2°F10.1°C 45.5°F7.5°C 84% 3.6 mph NW5.8 kmh NW 5.4 mph8.7 kmh 29.89 in1012.2 mb 0.00 in0.0 mm 0.00 in/hr0.0 mm/hr 0.01 in0.3 mm
10:45 PM 50.2°F10.1°C 45.5°F7.5°C 84% 3.7 mph NW6.0 kmh NW 5.4 mph8.7 kmh 29.89 in1012.2 mb 0.00 in0.0 mm 0.00 in/hr0.0 mm/hr 0.01 in0.3 mm
10:50 PM 50.0°F10.0°C 45.4°F7.4°C 84% 3.2 mph NW5.1 kmh NW 6.0 mph9.7 kmh 29.89 in1012.2 mb 0.00 in0.0 mm 0.00 in/hr0.0 mm/hr 0.01 in0.3 mm
10:55 PM 49.8°F9.9°C 45.2°F7.3°C 84% 3.7 mph NW6.0 kmh NW 6.0 mph9.7 kmh 29.89 in1012.2 mb 0.00 in0.0 mm 0.00 in/hr0.0 mm/hr 0.01 in0.3 mm
11:00 PM 49.8°F9.9°C 45.5°F7.5°C 85% 4.0 mph WNW6.4 kmh WNW 6.0 mph9.7 kmh 29.89 in1012.2 mb 0.00 in0.0 mm 0.00 in/hr0.0 mm/hr 0.01 in0.3 mm
11:05 PM 49.6°F9.8°C 45.3°F7.4°C 85% 4.1 mph WNW6.6 kmh WNW 6.0 mph9.7 kmh 29.89 in1012.2 mb 0.00 in0.0 mm 0.00 in/hr0.0 mm/hr 0.01 in0.3 mm
11:10 PM 49.3°F9.6°C 45.0°F7.2°C 85% 4.5 mph WNW7.2 kmh WNW 6.0 mph9.7 kmh 29.89 in1012.2 mb 0.00 in0.0 mm 0.00 in/hr0.0 mm/hr 0.01 in0.3 mm
11:15 PM 49.1°F9.5°C 44.8°F7.1°C 85% 5.7 mph WNW9.2 kmh WNW 8.3 mph13.4 kmh 29.89 in1012.2 mb 0.00 in0.0 mm 0.00 in/hr0.0 mm/hr 0.01 in0.3 mm
11:20 PM 48.9°F9.4°C 44.6°F7.0°C 85% 6.3 mph W10.1 kmh W 8.3 mph13.4 kmh 29.89 in1012.2 mb 0.00 in0.0 mm 0.00 in/hr0.0 mm/hr 0.01 in0.3 mm
11:25 PM 48.7°F9.3°C 44.7°F7.1°C 86% 5.1 mph W8.2 kmh W 7.6 mph12.2 kmh 29.89 in1012.2 mb 0.00 in0.0 mm 0.00 in/hr0.0 mm/hr 0.01 in0.3 mm
11:30 PM 48.7°F9.3°C 44.7°F7.1°C 86% 4.4 mph W7.1 kmh W 6.0 mph9.7 kmh 29.88 in1011.9 mb 0.00 in0.0 mm 0.00 in/hr0.0 mm/hr 0.01 in0.3 mm
11:35 PM 48.6°F9.2°C 44.6°F7.0°C 86% 3.8 mph W6.1 kmh W 6.0 mph9.7 kmh 29.89 in1012.2 mb 0.00 in0.0 mm 0.00 in/hr0.0 mm/hr 0.01 in0.3 mm
11:40 PM 48.6°F9.2°C 44.6°F7.0°C 86% 3.8 mph W6.1 kmh W 6.0 mph9.7 kmh 29.88 in1011.9 mb 0.00 in0.0 mm 0.00 in/hr0.0 mm/hr 0.01 in0.3 mm
11:45 PM 48.4°F9.1°C 44.7°F7.1°C 87% 4.5 mph W7.2 kmh W 5.4 mph8.7 kmh 29.89 in1012.2 mb 0.00 in0.0 mm 0.00 in/hr0.0 mm/hr 0.01 in0.3 mm
11:50 PM 48.2°F9.0°C 44.5°F6.9°C 87% 4.4 mph W7.1 kmh W 5.4 mph8.7 kmh 29.89 in1012.2 mb 0.00 in0.0 mm 0.00 in/hr0.0 mm/hr 0.01 in0.3 mm
11:55 PM 48.2°F9.0°C 44.5°F6.9°C 87% 3.9 mph W6.3 kmh W 5.4 mph8.7 kmh 29.89 in1012.2 mb 0.00 in0.0 mm 0.00 in/hr0.0 mm/hr 0.01 in0.3 mm